sensor_id;sensor_type;location;lat;lon;timestamp;P1;durP1;ratioP1;P2;durP2;ratioP2
55216;SDS011;41086;46.736;15.666;2023-02-28T00:00:36;10.70;;;6.65;;
55216;SDS011;41086;46.736;15.666;2023-02-28T00:03:04;10.43;;;5.85;;
55216;SDS011;41086;46.736;15.666;2023-02-28T00:05:31;10.13;;;5.97;;
55216;SDS011;41086;46.736;15.666;2023-02-28T00:07:59;7.45;;;5.47;;
55216;SDS011;41086;46.736;15.666;2023-02-28T00:10:27;10.23;;;5.47;;
55216;SDS011;41086;46.736;15.666;2023-02-28T00:12:56;11.18;;;6.10;;
55216;SDS011;41086;46.736;15.666;2023-02-28T00:15:27;8.73;;;6.05;;
55216;SDS011;41086;46.736;15.666;2023-02-28T00:17:54;8.68;;;5.85;;
55216;SDS011;41086;46.736;15.666;2023-02-28T00:20:21;11.30;;;7.35;;
55216;SDS011;41086;46.736;15.666;2023-02-28T00:22:49;11.57;;;7.50;;
55216;SDS011;41086;46.736;15.666;2023-02-28T00:25:18;11.82;;;7.25;;
55216;SDS011;41086;46.736;15.666;2023-02-28T00:27:47;13.43;;;8.23;;
55216;SDS011;41086;46.736;15.666;2023-02-28T00:30:16;15.25;;;7.22;;
55216;SDS011;41086;46.736;15.666;2023-02-28T00:32:44;15.20;;;8.27;;
55216;SDS011;41086;46.736;15.666;2023-02-28T00:35:11;13.38;;;7.53;;
55216;SDS011;41086;46.736;15.666;2023-02-28T00:37:40;13.68;;;7.72;;
55216;SDS011;41086;46.736;15.666;2023-02-28T00:40:07;9.77;;;6.47;;
55216;SDS011;41086;46.736;15.666;2023-02-28T00:42:35;8.65;;;5.63;;
55216;SDS011;41086;46.736;15.666;2023-02-28T00:45:02;9.20;;;6.20;;
55216;SDS011;41086;46.736;15.666;2023-02-28T00:47:32;11.80;;;7.18;;
55216;SDS011;41086;46.736;15.666;2023-02-28T00:49:59;9.30;;;6.30;;
55216;SDS011;41086;46.736;15.666;2023-02-28T00:52:27;11.95;;;7.03;;
55216;SDS011;41086;46.736;15.666;2023-02-28T00:54:54;13.75;;;7.28;;
55216;SDS011;41086;46.736;15.666;2023-02-28T00:57:21;23.40;;;13.30;;
55216;SDS011;41086;46.736;15.666;2023-02-28T00:59:47;10.43;;;6.60;;
55216;SDS011;41086;46.736;15.666;2023-02-28T01:02:14;10.75;;;6.55;;
55216;SDS011;41086;46.736;15.666;2023-02-28T01:04:41;9.82;;;6.75;;
55216;SDS011;41086;46.736;15.666;2023-02-28T01:07:08;14.10;;;6.95;;
55216;SDS011;41086;46.736;15.666;2023-02-28T01:09:35;11.88;;;6.65;;
55216;SDS011;41086;46.736;15.666;2023-02-28T01:12:01;9.98;;;6.53;;
55216;SDS011;41086;46.736;15.666;2023-02-28T01:14:28;8.82;;;6.88;;
55216;SDS011;41086;46.736;15.666;2023-02-28T01:16:55;9.48;;;6.50;;
55216;SDS011;41086;46.736;15.666;2023-02-28T01:19:24;16.70;;;7.63;;
55216;SDS011;41086;46.736;15.666;2023-02-28T01:21:50;8.90;;;6.47;;
55216;SDS011;41086;46.736;15.666;2023-02-28T01:24:17;11.57;;;6.35;;
55216;SDS011;41086;46.736;15.666;2023-02-28T01:26:44;12.50;;;6.95;;
55216;SDS011;41086;46.736;15.666;2023-02-28T01:29:11;11.10;;;7.80;;
55216;SDS011;41086;46.736;15.666;2023-02-28T01:31:38;14.73;;;7.18;;
55216;SDS011;41086;46.736;15.666;2023-02-28T01:34:07;9.30;;;5.93;;
55216;SDS011;41086;46.736;15.666;2023-02-28T01:36:33;18.00;;;6.57;;
55216;SDS011;41086;46.736;15.666;2023-02-28T01:39:00;12.52;;;6.97;;
55216;SDS011;41086;46.736;15.666;2023-02-28T01:41:30;14.90;;;7.80;;
55216;SDS011;41086;46.736;15.666;2023-02-28T01:44:01;10.43;;;6.60;;
55216;SDS011;41086;46.736;15.666;2023-02-28T01:46:54;8.15;;;6.30;;
55216;SDS011;41086;46.736;15.666;2023-02-28T01:49:21;11.18;;;6.05;;
55216;SDS011;41086;46.736;15.666;2023-02-28T01:51:49;8.77;;;5.53;;
55216;SDS011;41086;46.736;15.666;2023-02-28T01:54:22;8.00;;;5.43;;
55216;SDS011;41086;46.736;15.666;2023-02-28T01:56:58;10.80;;;6.13;;
55216;SDS011;41086;46.736;15.666;2023-02-28T01:59:40;9.50;;;6.57;;
55216;SDS011;41086;46.736;15.666;2023-02-28T02:02:15;8.38;;;5.68;;
55216;SDS011;41086;46.736;15.666;2023-02-28T02:04:58;11.45;;;6.68;;
55216;SDS011;41086;46.736;15.666;2023-02-28T02:07:33;8.55;;;5.50;;
55216;SDS011;41086;46.736;15.666;2023-02-28T02:10:06;9.35;;;5.75;;
55216;SDS011;41086;46.736;15.666;2023-02-28T02:15:15;10.05;;;6.07;;
55216;SDS011;41086;46.736;15.666;2023-02-28T02:17:51;9.13;;;6.25;;
55216;SDS011;41086;46.736;15.666;2023-02-28T02:36:24;8.85;;;5.00;;
55216;SDS011;41086;46.736;15.666;2023-02-28T02:41:49;8.75;;;4.90;;
55216;SDS011;41086;46.736;15.666;2023-02-28T02:44:36;8.75;;;5.53;;
55216;SDS011;41086;46.736;15.666;2023-02-28T02:47:11;8.95;;;5.50;;
55216;SDS011;41086;46.736;15.666;2023-02-28T02:49:43;8.13;;;5.57;;
55216;SDS011;41086;46.736;15.666;2023-02-28T02:52:16;9.50;;;5.20;;
55216;SDS011;41086;46.736;15.666;2023-02-28T02:54:47;7.45;;;5.20;;
55216;SDS011;41086;46.736;15.666;2023-02-28T02:57:20;9.80;;;5.63;;
55216;SDS011;41086;46.736;15.666;2023-02-28T02:59:51;8.35;;;5.20;;
55216;SDS011;41086;46.736;15.666;2023-02-28T03:02:20;10.02;;;6.03;;
55216;SDS011;41086;46.736;15.666;2023-02-28T03:04:58;8.90;;;5.43;;
55216;SDS011;41086;46.736;15.666;2023-02-28T03:07:28;10.93;;;5.22;;
55216;SDS011;41086;46.736;15.666;2023-02-28T03:09:56;9.77;;;6.00;;
55216;SDS011;41086;46.736;15.666;2023-02-28T03:12:27;12.68;;;5.93;;
55216;SDS011;41086;46.736;15.666;2023-02-28T03:15:27;9.35;;;5.80;;
55216;SDS011;41086;46.736;15.666;2023-02-28T03:18:05;11.73;;;6.43;;
55216;SDS011;41086;46.736;15.666;2023-02-28T03:20:58;13.82;;;6.47;;
55216;SDS011;41086;46.736;15.666;2023-02-28T03:23:42;12.80;;;6.40;;
55216;SDS011;41086;46.736;15.666;2023-02-28T03:26:26;9.30;;;5.80;;
55216;SDS011;41086;46.736;15.666;2023-02-28T03:29:37;7.57;;;5.40;;
55216;SDS011;41086;46.736;15.666;2023-02-28T03:31:54;11.93;;;5.78;;
55216;SDS011;41086;46.736;15.666;2023-02-28T03:34:37;9.82;;;5.95;;
55216;SDS011;41086;46.736;15.666;2023-02-28T03:37:12;12.50;;;5.75;;
55216;SDS011;41086;46.736;15.666;2023-02-28T03:39:56;9.35;;;5.93;;
55216;SDS011;41086;46.736;15.666;2023-02-28T03:42:39;8.85;;;6.07;;
55216;SDS011;41086;46.736;15.666;2023-02-28T03:45:11;9.27;;;5.93;;
55216;SDS011;41086;46.736;15.666;2023-02-28T03:47:46;9.40;;;5.90;;
55216;SDS011;41086;46.736;15.666;2023-02-28T03:50:18;10.63;;;5.72;;
55216;SDS011;41086;46.736;15.666;2023-02-28T03:52:53;10.50;;;5.70;;
55216;SDS011;41086;46.736;15.666;2023-02-28T03:55:32;12.45;;;5.88;;
55216;SDS011;41086;46.736;15.666;2023-02-28T03:58:20;8.45;;;5.95;;
55216;SDS011;41086;46.736;15.666;2023-02-28T04:00:57;14.95;;;6.63;;
55216;SDS011;41086;46.736;15.666;2023-02-28T04:03:34;10.63;;;6.88;;
55216;SDS011;41086;46.736;15.666;2023-02-28T04:06:03;10.88;;;6.40;;
55216;SDS011;41086;46.736;15.666;2023-02-28T04:08:32;10.40;;;5.80;;
55216;SDS011;41086;46.736;15.666;2023-02-28T04:11:06;10.63;;;6.38;;
55216;SDS011;41086;46.736;15.666;2023-02-28T04:13:43;12.00;;;6.07;;
55216;SDS011;41086;46.736;15.666;2023-02-28T04:16:12;10.23;;;5.88;;
55216;SDS011;41086;46.736;15.666;2023-02-28T04:18:57;11.27;;;6.53;;
55216;SDS011;41086;46.736;15.666;2023-02-28T04:21:29;10.27;;;6.97;;
55216;SDS011;41086;46.736;15.666;2023-02-28T04:23:57;11.90;;;6.63;;
55216;SDS011;41086;46.736;15.666;2023-02-28T04:26:33;11.80;;;6.55;;
55216;SDS011;41086;46.736;15.666;2023-02-28T04:29:04;8.70;;;5.70;;
55216;SDS011;41086;46.736;15.666;2023-02-28T04:31:32;15.93;;;6.85;;
55216;SDS011;41086;46.736;15.666;2023-02-28T04:33:59;10.57;;;6.57;;
55216;SDS011;41086;46.736;15.666;2023-02-28T04:36:26;10.43;;;6.45;;
55216;SDS011;41086;46.736;15.666;2023-02-28T04:38:53;9.82;;;6.05;;
55216;SDS011;41086;46.736;15.666;2023-02-28T04:41:21;12.70;;;6.68;;
55216;SDS011;41086;46.736;15.666;2023-02-28T04:43:50;11.88;;;6.15;;
55216;SDS011;41086;46.736;15.666;2023-02-28T04:46:19;10.55;;;6.15;;
55216;SDS011;41086;46.736;15.666;2023-02-28T04:48:46;11.10;;;6.03;;
55216;SDS011;41086;46.736;15.666;2023-02-28T04:51:13;13.95;;;6.40;;
55216;SDS011;41086;46.736;15.666;2023-02-28T04:53:42;11.90;;;6.63;;
55216;SDS011;41086;46.736;15.666;2023-02-28T04:56:11;16.13;;;9.52;;
55216;SDS011;41086;46.736;15.666;2023-02-28T04:58:40;10.90;;;6.13;;
55216;SDS011;41086;46.736;15.666;2023-02-28T05:01:14;13.23;;;6.75;;
55216;SDS011;41086;46.736;15.666;2023-02-28T05:03:42;9.80;;;5.72;;
55216;SDS011;41086;46.736;15.666;2023-02-28T05:06:10;10.50;;;6.03;;
55216;SDS011;41086;46.736;15.666;2023-02-28T05:08:38;10.15;;;5.57;;
55216;SDS011;41086;46.736;15.666;2023-02-28T05:11:06;12.70;;;6.90;;
55216;SDS011;41086;46.736;15.666;2023-02-28T05:13:38;8.98;;;6.30;;
55216;SDS011;41086;46.736;15.666;2023-02-28T05:16:05;13.07;;;6.28;;
55216;SDS011;41086;46.736;15.666;2023-02-28T05:18:32;9.90;;;6.75;;
55216;SDS011;41086;46.736;15.666;2023-02-28T05:20:59;11.65;;;6.45;;
55216;SDS011;41086;46.736;15.666;2023-02-28T05:23:28;11.50;;;6.28;;
55216;SDS011;41086;46.736;15.666;2023-02-28T05:25:55;8.00;;;5.75;;
55216;SDS011;41086;46.736;15.666;2023-02-28T05:28:22;9.38;;;5.88;;
55216;SDS011;41086;46.736;15.666;2023-02-28T05:30:49;10.27;;;6.47;;
55216;SDS011;41086;46.736;15.666;2023-02-28T05:33:16;10.02;;;5.93;;
55216;SDS011;41086;46.736;15.666;2023-02-28T05:35:42;9.35;;;6.10;;
55216;SDS011;41086;46.736;15.666;2023-02-28T05:38:09;11.57;;;6.30;;
55216;SDS011;41086;46.736;15.666;2023-02-28T05:40:37;11.48;;;6.90;;
55216;SDS011;41086;46.736;15.666;2023-02-28T05:43:05;11.15;;;7.15;;
55216;SDS011;41086;46.736;15.666;2023-02-28T05:45:36;10.05;;;6.20;;
55216;SDS011;41086;46.736;15.666;2023-02-28T05:48:03;13.73;;;6.40;;
55216;SDS011;41086;46.736;15.666;2023-02-28T05:50:30;9.35;;;6.80;;
55216;SDS011;41086;46.736;15.666;2023-02-28T05:52:56;10.38;;;6.15;;
55216;SDS011;41086;46.736;15.666;2023-02-28T05:55:23;9.00;;;6.65;;
55216;SDS011;41086;46.736;15.666;2023-02-28T05:57:50;10.00;;;6.40;;
55216;SDS011;41086;46.736;15.666;2023-02-28T06:00:17;8.60;;;6.28;;
55216;SDS011;41086;46.736;15.666;2023-02-28T06:02:44;10.65;;;6.72;;
55216;SDS011;41086;46.736;15.666;2023-02-28T06:05:15;9.77;;;6.45;;
55216;SDS011;41086;46.736;15.666;2023-02-28T06:07:44;11.10;;;6.43;;
55216;SDS011;41086;46.736;15.666;2023-02-28T06:10:11;10.90;;;6.75;;
55216;SDS011;41086;46.736;15.666;2023-02-28T06:15:04;11.40;;;6.95;;
55216;SDS011;41086;46.736;15.666;2023-02-28T06:17:31;11.35;;;6.95;;
55216;SDS011;41086;46.736;15.666;2023-02-28T06:19:58;16.00;;;6.95;;
55216;SDS011;41086;46.736;15.666;2023-02-28T06:22:25;11.88;;;7.28;;
55216;SDS011;41086;46.736;15.666;2023-02-28T06:24:52;16.73;;;8.48;;
55216;SDS011;41086;46.736;15.666;2023-02-28T06:27:19;15.73;;;8.75;;
55216;SDS011;41086;46.736;15.666;2023-02-28T06:29:46;9.77;;;6.53;;
55216;SDS011;41086;46.736;15.666;2023-02-28T06:32:13;9.48;;;6.32;;
55216;SDS011;41086;46.736;15.666;2023-02-28T06:34:40;11.18;;;6.50;;
55216;SDS011;41086;46.736;15.666;2023-02-28T06:37:07;11.15;;;7.13;;
55216;SDS011;41086;46.736;15.666;2023-02-28T06:39:34;11.35;;;6.35;;
55216;SDS011;41086;46.736;15.666;2023-02-28T06:42:00;10.35;;;7.38;;
55216;SDS011;41086;46.736;15.666;2023-02-28T06:44:27;9.98;;;6.65;;
55216;SDS011;41086;46.736;15.666;2023-02-28T06:47:01;10.63;;;6.82;;
55216;SDS011;41086;46.736;15.666;2023-02-28T06:49:30;10.02;;;6.15;;
55216;SDS011;41086;46.736;15.666;2023-02-28T06:51:58;11.38;;;6.45;;
55216;SDS011;41086;46.736;15.666;2023-02-28T06:54:25;12.48;;;7.30;;
55216;SDS011;41086;46.736;15.666;2023-02-28T06:56:52;11.52;;;6.45;;
55216;SDS011;41086;46.736;15.666;2023-02-28T06:59:20;11.82;;;7.45;;
55216;SDS011;41086;46.736;15.666;2023-02-28T07:01:47;9.27;;;6.47;;
55216;SDS011;41086;46.736;15.666;2023-02-28T07:04:14;10.52;;;6.53;;
55216;SDS011;41086;46.736;15.666;2023-02-28T07:06:41;13.25;;;6.85;;
55216;SDS011;41086;46.736;15.666;2023-02-28T07:09:07;12.00;;;7.38;;
55216;SDS011;41086;46.736;15.666;2023-02-28T07:11:34;11.98;;;7.28;;
55216;SDS011;41086;46.736;15.666;2023-02-28T07:14:01;13.02;;;7.85;;
55216;SDS011;41086;46.736;15.666;2023-02-28T07:16:28;13.63;;;7.45;;
55216;SDS011;41086;46.736;15.666;2023-02-28T07:18:55;9.77;;;6.15;;
55216;SDS011;41086;46.736;15.666;2023-02-28T07:21:21;11.98;;;7.45;;
55216;SDS011;41086;46.736;15.666;2023-02-28T07:23:49;13.45;;;7.57;;
55216;SDS011;41086;46.736;15.666;2023-02-28T07:26:16;10.77;;;6.63;;
55216;SDS011;41086;46.736;15.666;2023-02-28T07:28:45;12.00;;;6.75;;
55216;SDS011;41086;46.736;15.666;2023-02-28T07:31:14;13.05;;;7.35;;
55216;SDS011;41086;46.736;15.666;2023-02-28T07:33:41;12.73;;;6.95;;
55216;SDS011;41086;46.736;15.666;2023-02-28T07:36:09;11.30;;;6.25;;
55216;SDS011;41086;46.736;15.666;2023-02-28T07:38:42;10.95;;;6.57;;
55216;SDS011;41086;46.736;15.666;2023-02-28T07:41:14;11.30;;;6.75;;
55216;SDS011;41086;46.736;15.666;2023-02-28T07:43:43;9.13;;;6.40;;
55216;SDS011;41086;46.736;15.666;2023-02-28T07:46:12;9.40;;;6.53;;
55216;SDS011;41086;46.736;15.666;2023-02-28T07:48:43;11.82;;;7.07;;
55216;SDS011;41086;46.736;15.666;2023-02-28T07:51:10;14.27;;;7.57;;
55216;SDS011;41086;46.736;15.666;2023-02-28T07:53:37;9.80;;;6.65;;
55216;SDS011;41086;46.736;15.666;2023-02-28T07:56:04;11.43;;;7.00;;
55216;SDS011;41086;46.736;15.666;2023-02-28T08:01:04;10.00;;;6.22;;
55216;SDS011;41086;46.736;15.666;2023-02-28T08:03:32;12.85;;;7.30;;
55216;SDS011;41086;46.736;15.666;2023-02-28T08:05:59;11.32;;;7.38;;
55216;SDS011;41086;46.736;15.666;2023-02-28T08:08:25;14.48;;;8.05;;
55216;SDS011;41086;46.736;15.666;2023-02-28T08:10:55;12.25;;;7.47;;
55216;SDS011;41086;46.736;15.666;2023-02-28T08:13:24;12.55;;;7.75;;
55216;SDS011;41086;46.736;15.666;2023-02-28T08:15:50;11.30;;;6.95;;
55216;SDS011;41086;46.736;15.666;2023-02-28T08:18:17;11.85;;;6.97;;
55216;SDS011;41086;46.736;15.666;2023-02-28T08:20:44;9.00;;;6.53;;
55216;SDS011;41086;46.736;15.666;2023-02-28T08:23:11;12.65;;;7.20;;
55216;SDS011;41086;46.736;15.666;2023-02-28T08:25:37;9.38;;;6.65;;
55216;SDS011;41086;46.736;15.666;2023-02-28T08:28:04;10.38;;;6.93;;
55216;SDS011;41086;46.736;15.666;2023-02-28T08:30:31;10.40;;;6.60;;
55216;SDS011;41086;46.736;15.666;2023-02-28T08:32:58;11.52;;;6.72;;
55216;SDS011;41086;46.736;15.666;2023-02-28T08:35:25;11.00;;;6.72;;
55216;SDS011;41086;46.736;15.666;2023-02-28T08:37:52;12.00;;;7.43;;
55216;SDS011;41086;46.736;15.666;2023-02-28T08:40:18;15.20;;;6.93;;
55216;SDS011;41086;46.736;15.666;2023-02-28T08:42:45;12.93;;;7.00;;
55216;SDS011;41086;46.736;15.666;2023-02-28T08:47:40;10.88;;;6.60;;
55216;SDS011;41086;46.736;15.666;2023-02-28T08:52:34;12.68;;;6.85;;
55216;SDS011;41086;46.736;15.666;2023-02-28T08:55:01;10.52;;;6.53;;
55216;SDS011;41086;46.736;15.666;2023-02-28T08:57:27;9.63;;;6.72;;
55216;SDS011;41086;46.736;15.666;2023-02-28T08:59:54;11.73;;;6.97;;
55216;SDS011;41086;46.736;15.666;2023-02-28T09:02:21;11.82;;;7.15;;
55216;SDS011;41086;46.736;15.666;2023-02-28T09:04:48;10.07;;;6.28;;
55216;SDS011;41086;46.736;15.666;2023-02-28T09:07:14;13.70;;;7.20;;
55216;SDS011;41086;46.736;15.666;2023-02-28T09:09:41;14.32;;;7.53;;
55216;SDS011;41086;46.736;15.666;2023-02-28T09:12:25;14.75;;;7.03;;
55216;SDS011;41086;46.736;15.666;2023-02-28T09:14:53;10.15;;;6.97;;
55216;SDS011;41086;46.736;15.666;2023-02-28T09:17:20;14.43;;;7.45;;
55216;SDS011;41086;46.736;15.666;2023-02-28T09:19:47;14.20;;;7.43;;
55216;SDS011;41086;46.736;15.666;2023-02-28T09:22:15;18.45;;;7.57;;
55216;SDS011;41086;46.736;15.666;2023-02-28T09:24:42;14.32;;;8.45;;
55216;SDS011;41086;46.736;15.666;2023-02-28T09:27:10;12.23;;;7.45;;
55216;SDS011;41086;46.736;15.666;2023-02-28T09:29:37;14.70;;;7.93;;
55216;SDS011;41086;46.736;15.666;2023-02-28T09:32:04;12.02;;;7.68;;
55216;SDS011;41086;46.736;15.666;2023-02-28T09:34:32;11.75;;;7.45;;
55216;SDS011;41086;46.736;15.666;2023-02-28T09:39:26;17.80;;;8.48;;
55216;SDS011;41086;46.736;15.666;2023-02-28T09:41:53;17.40;;;9.27;;
55216;SDS011;41086;46.736;15.666;2023-02-28T09:44:26;16.08;;;9.48;;
55216;SDS011;41086;46.736;15.666;2023-02-28T09:47:51;17.20;;;10.50;;
55216;SDS011;41086;46.736;15.666;2023-02-28T09:49:55;18.98;;;9.48;;
55216;SDS011;41086;46.736;15.666;2023-02-28T09:52:28;16.85;;;9.65;;
55216;SDS011;41086;46.736;15.666;2023-02-28T09:55:01;19.23;;;9.93;;
55216;SDS011;41086;46.736;15.666;2023-02-28T09:57:45;18.38;;;9.57;;
55216;SDS011;41086;46.736;15.666;2023-02-28T10:00:19;20.13;;;10.95;;
55216;SDS011;41086;46.736;15.666;2023-02-28T10:05:53;21.95;;;10.00;;
55216;SDS011;41086;46.736;15.666;2023-02-28T10:08:28;20.55;;;10.55;;
55216;SDS011;41086;46.736;15.666;2023-02-28T10:11:03;25.20;;;11.55;;
55216;SDS011;41086;46.736;15.666;2023-02-28T10:16:06;19.20;;;10.52;;
55216;SDS011;41086;46.736;15.666;2023-02-28T10:21:19;23.33;;;11.90;;
55216;SDS011;41086;46.736;15.666;2023-02-28T10:23:48;26.00;;;12.05;;
55216;SDS011;41086;46.736;15.666;2023-02-28T10:26:15;24.45;;;10.80;;
55216;SDS011;41086;46.736;15.666;2023-02-28T10:28:43;20.65;;;11.40;;
55216;SDS011;41086;46.736;15.666;2023-02-28T10:31:16;16.92;;;10.35;;
55216;SDS011;41086;46.736;15.666;2023-02-28T10:33:45;32.00;;;11.98;;
55216;SDS011;41086;46.736;15.666;2023-02-28T10:36:14;19.08;;;7.88;;
55216;SDS011;41086;46.736;15.666;2023-02-28T10:38:43;15.43;;;8.15;;
55216;SDS011;41086;46.736;15.666;2023-02-28T10:43:42;25.75;;;10.02;;
55216;SDS011;41086;46.736;15.666;2023-02-28T10:46:14;20.45;;;11.38;;
55216;SDS011;41086;46.736;15.666;2023-02-28T10:49:02;18.10;;;9.23;;
55216;SDS011;41086;46.736;15.666;2023-02-28T10:51:38;17.92;;;9.98;;
55216;SDS011;41086;46.736;15.666;2023-02-28T10:54:14;22.67;;;10.82;;
55216;SDS011;41086;46.736;15.666;2023-02-28T10:56:42;20.38;;;10.90;;
55216;SDS011;41086;46.736;15.666;2023-02-28T10:59:25;18.50;;;11.00;;
55216;SDS011;41086;46.736;15.666;2023-02-28T11:01:54;20.80;;;11.45;;
55216;SDS011;41086;46.736;15.666;2023-02-28T11:06:56;24.15;;;10.02;;
55216;SDS011;41086;46.736;15.666;2023-02-28T11:09:30;24.65;;;11.13;;
55216;SDS011;41086;46.736;15.666;2023-02-28T11:12:02;23.10;;;12.80;;
55216;SDS011;41086;46.736;15.666;2023-02-28T11:14:33;24.67;;;12.10;;
55216;SDS011;41086;46.736;15.666;2023-02-28T11:17:22;18.70;;;12.02;;
55216;SDS011;41086;46.736;15.666;2023-02-28T11:19:55;18.90;;;11.18;;
55216;SDS011;41086;46.736;15.666;2023-02-28T11:22:26;29.77;;;13.38;;
55216;SDS011;41086;46.736;15.666;2023-02-28T11:24:59;23.83;;;12.02;;
55216;SDS011;41086;46.736;15.666;2023-02-28T11:27:45;21.20;;;11.40;;
55216;SDS011;41086;46.736;15.666;2023-02-28T11:30:27;25.48;;;12.32;;
55216;SDS011;41086;46.736;15.666;2023-02-28T11:33:37;23.55;;;12.20;;
55216;SDS011;41086;46.736;15.666;2023-02-28T11:36:04;26.23;;;12.02;;
55216;SDS011;41086;46.736;15.666;2023-02-28T11:38:41;31.20;;;12.90;;
55216;SDS011;41086;46.736;15.666;2023-02-28T11:46:20;25.67;;;12.57;;
55216;SDS011;41086;46.736;15.666;2023-02-28T11:49:01;27.70;;;13.82;;
55216;SDS011;41086;46.736;15.666;2023-02-28T11:51:47;20.13;;;10.80;;
55216;SDS011;41086;46.736;15.666;2023-02-28T12:02:49;23.30;;;11.10;;
55216;SDS011;41086;46.736;15.666;2023-02-28T12:05:31;24.50;;;11.98;;
55216;SDS011;41086;46.736;15.666;2023-02-28T12:11:19;24.15;;;10.88;;
55216;SDS011;41086;46.736;15.666;2023-02-28T12:19:37;18.75;;;9.23;;
55216;SDS011;41086;46.736;15.666;2023-02-28T12:22:37;25.45;;;13.35;;
55216;SDS011;41086;46.736;15.666;2023-02-28T12:28:26;24.98;;;11.80;;
55216;SDS011;41086;46.736;15.666;2023-02-28T12:33:36;35.08;;;14.82;;
55216;SDS011;41086;46.736;15.666;2023-02-28T12:36:10;22.80;;;12.45;;
55216;SDS011;41086;46.736;15.666;2023-02-28T12:38:53;24.90;;;12.75;;
55216;SDS011;41086;46.736;15.666;2023-02-28T12:44:09;28.42;;;12.75;;
55216;SDS011;41086;46.736;15.666;2023-02-28T12:46:41;27.20;;;12.73;;
55216;SDS011;41086;46.736;15.666;2023-02-28T12:49:13;26.90;;;14.20;;
55216;SDS011;41086;46.736;15.666;2023-02-28T12:51:45;26.60;;;13.13;;
55216;SDS011;41086;46.736;15.666;2023-02-28T12:57:25;20.63;;;11.57;;
55216;SDS011;41086;46.736;15.666;2023-02-28T13:00:10;18.13;;;11.32;;
55216;SDS011;41086;46.736;15.666;2023-02-28T13:08:04;22.67;;;12.52;;
55216;SDS011;41086;46.736;15.666;2023-02-28T13:10:48;19.60;;;10.48;;
55216;SDS011;41086;46.736;15.666;2023-02-28T13:13:21;20.52;;;11.45;;
55216;SDS011;41086;46.736;15.666;2023-02-28T13:16:09;20.30;;;11.05;;
55216;SDS011;41086;46.736;15.666;2023-02-28T13:18:38;18.25;;;9.63;;
55216;SDS011;41086;46.736;15.666;2023-02-28T13:21:09;20.10;;;11.48;;
55216;SDS011;41086;46.736;15.666;2023-02-28T13:34:28;20.35;;;12.38;;
55216;SDS011;41086;46.736;15.666;2023-02-28T13:40:06;21.20;;;9.80;;
55216;SDS011;41086;46.736;15.666;2023-02-28T13:43:06;13.68;;;8.20;;
55216;SDS011;41086;46.736;15.666;2023-02-28T13:45:35;15.07;;;9.20;;
55216;SDS011;41086;46.736;15.666;2023-02-28T13:48:16;16.75;;;10.13;;
55216;SDS011;41086;46.736;15.666;2023-02-28T13:50:45;15.35;;;9.70;;
55216;SDS011;41086;46.736;15.666;2023-02-28T13:58:46;30.95;;;12.05;;
55216;SDS011;41086;46.736;15.666;2023-02-28T14:07:05;15.30;;;8.63;;
55216;SDS011;41086;46.736;15.666;2023-02-28T14:09:34;17.10;;;9.45;;
55216;SDS011;41086;46.736;15.666;2023-02-28T14:12:50;16.17;;;8.52;;
55216;SDS011;41086;46.736;15.666;2023-02-28T14:18:31;17.85;;;10.57;;
55216;SDS011;41086;46.736;15.666;2023-02-28T14:27:11;16.67;;;8.67;;
55216;SDS011;41086;46.736;15.666;2023-02-28T14:32:47;19.73;;;9.80;;
55216;SDS011;41086;46.736;15.666;2023-02-28T14:38:11;16.30;;;8.90;;
55216;SDS011;41086;46.736;15.666;2023-02-28T14:40:43;21.80;;;10.68;;
55216;SDS011;41086;46.736;15.666;2023-02-28T14:43:20;16.70;;;9.35;;
55216;SDS011;41086;46.736;15.666;2023-02-28T14:45:49;18.15;;;10.45;;
55216;SDS011;41086;46.736;15.666;2023-02-28T14:48:19;25.58;;;10.93;;
55216;SDS011;41086;46.736;15.666;2023-02-28T14:50:55;30.27;;;15.88;;
55216;SDS011;41086;46.736;15.666;2023-02-28T14:53:25;32.88;;;17.30;;
55216;SDS011;41086;46.736;15.666;2023-02-28T14:55:54;17.52;;;10.90;;
55216;SDS011;41086;46.736;15.666;2023-02-28T14:58:26;20.23;;;10.77;;
55216;SDS011;41086;46.736;15.666;2023-02-28T15:00:58;19.27;;;11.07;;
55216;SDS011;41086;46.736;15.666;2023-02-28T15:03:34;21.83;;;11.13;;
55216;SDS011;41086;46.736;15.666;2023-02-28T15:06:06;20.58;;;11.60;;
55216;SDS011;41086;46.736;15.666;2023-02-28T15:08:40;18.98;;;10.75;;
55216;SDS011;41086;46.736;15.666;2023-02-28T15:11:07;23.38;;;11.55;;
55216;SDS011;41086;46.736;15.666;2023-02-28T15:13:40;17.92;;;10.23;;
55216;SDS011;41086;46.736;15.666;2023-02-28T15:16:11;17.77;;;10.85;;
55216;SDS011;41086;46.736;15.666;2023-02-28T15:18:43;22.73;;;10.60;;
55216;SDS011;41086;46.736;15.666;2023-02-28T15:21:26;21.33;;;12.15;;
55216;SDS011;41086;46.736;15.666;2023-02-28T15:23:58;20.55;;;10.77;;
55216;SDS011;41086;46.736;15.666;2023-02-28T15:26:29;18.58;;;10.55;;
55216;SDS011;41086;46.736;15.666;2023-02-28T15:29:04;18.05;;;11.30;;
55216;SDS011;41086;46.736;15.666;2023-02-28T15:31:40;20.13;;;9.63;;
55216;SDS011;41086;46.736;15.666;2023-02-28T15:45:52;19.88;;;10.50;;
55216;SDS011;41086;46.736;15.666;2023-02-28T15:48:36;19.85;;;10.20;;
55216;SDS011;41086;46.736;15.666;2023-02-28T15:53:57;17.63;;;10.95;;
55216;SDS011;41086;46.736;15.666;2023-02-28T15:56:43;20.13;;;10.98;;
55216;SDS011;41086;46.736;15.666;2023-02-28T15:59:15;20.52;;;10.38;;
55216;SDS011;41086;46.736;15.666;2023-02-28T16:02:02;21.95;;;10.93;;
55216;SDS011;41086;46.736;15.666;2023-02-28T16:04:36;19.63;;;10.95;;
55216;SDS011;41086;46.736;15.666;2023-02-28T16:07:04;17.88;;;10.77;;
55216;SDS011;41086;46.736;15.666;2023-02-28T16:09:32;16.75;;;9.57;;
55216;SDS011;41086;46.736;15.666;2023-02-28T16:12:01;19.52;;;10.63;;
55216;SDS011;41086;46.736;15.666;2023-02-28T16:14:29;25.52;;;10.95;;
55216;SDS011;41086;46.736;15.666;2023-02-28T16:17:02;21.02;;;10.55;;
55216;SDS011;41086;46.736;15.666;2023-02-28T16:19:31;17.88;;;10.50;;
55216;SDS011;41086;46.736;15.666;2023-02-28T16:22:00;19.38;;;11.02;;
55216;SDS011;41086;46.736;15.666;2023-02-28T16:24:27;18.73;;;9.90;;
55216;SDS011;41086;46.736;15.666;2023-02-28T16:26:54;17.85;;;10.00;;
55216;SDS011;41086;46.736;15.666;2023-02-28T16:29:24;20.50;;;10.27;;
55216;SDS011;41086;46.736;15.666;2023-02-28T16:31:55;18.20;;;10.00;;
55216;SDS011;41086;46.736;15.666;2023-02-28T16:34:22;19.65;;;9.85;;
55216;SDS011;41086;46.736;15.666;2023-02-28T16:36:50;18.63;;;10.07;;
55216;SDS011;41086;46.736;15.666;2023-02-28T16:39:17;22.23;;;10.65;;
55216;SDS011;41086;46.736;15.666;2023-02-28T16:41:47;19.92;;;10.70;;
55216;SDS011;41086;46.736;15.666;2023-02-28T16:47:14;16.15;;;9.60;;
55216;SDS011;41086;46.736;15.666;2023-02-28T16:49:41;20.17;;;10.73;;
55216;SDS011;41086;46.736;15.666;2023-02-28T16:52:09;20.20;;;10.95;;
55216;SDS011;41086;46.736;15.666;2023-02-28T16:54:38;22.33;;;11.52;;
55216;SDS011;41086;46.736;15.666;2023-02-28T16:57:05;17.75;;;10.38;;
55216;SDS011;41086;46.736;15.666;2023-02-28T16:59:41;18.15;;;10.68;;
55216;SDS011;41086;46.736;15.666;2023-02-28T17:02:10;28.20;;;14.82;;
55216;SDS011;41086;46.736;15.666;2023-02-28T17:04:39;21.27;;;11.60;;
55216;SDS011;41086;46.736;15.666;2023-02-28T17:07:13;24.15;;;12.10;;
55216;SDS011;41086;46.736;15.666;2023-02-28T17:09:43;18.67;;;8.80;;